Time;durP1;ratioP1;P1;durP2;ratioP2;P2;SDS_P1;SDS_P2;PMS_P1;PMS_P2;Temp;Humidity;BMP_temperature;BMP_pressure;BME280_temperature;BME280_humidity;BME280_pressure;Samples;Min_cycle;Max_cycle;Signal;HPM_P1;HPM_P2
2024/04/16 00:00:47;;;;;;;5.57;1.65;;;;;;;;;;5464296;26;20007;-58
2024/04/16 00:03:14;;;;;;;6.97;1.98;;;;;;;;;;5457672;26;20052;-57
2024/04/16 00:05:40;;;;;;;5.82;1.35;;;;;;;;;;5454314;26;20033;-55
2024/04/16 00:08:06;;;;;;;7.28;1.52;;;;;;;;;;5491922;26;20022;-57
2024/04/16 00:10:33;;;;;;;5.82;1.67;;;;;;;;;;5491965;26;20391;-58
2024/04/16 00:12:59;;;;;;;10.70;2.00;;;;;;;;;;5489305;26;20002;-57
2024/04/16 00:15:26;;;;;;;7.07;1.80;;;;;;;;;;5458696;26;20002;-58
2024/04/16 00:17:52;;;;;;;7.30;1.52;;;;;;;;;;5458793;26;19998;-56
2024/04/16 00:20:18;;;;;;;8.15;1.58;;;;;;;;;;5490259;26;19999;-57
2024/04/16 00:22:44;;;;;;;10.50;1.90;;;;;;;;;;5475694;26;20002;-57
2024/04/16 00:25:10;;;;;;;8.32;1.70;;;;;;;;;;5490601;26;19998;-55
2024/04/16 00:27:36;;;;;;;9.73;1.85;;;;;;;;;;5489320;26;20406;-53
2024/04/16 00:30:03;;;;;;;17.42;2.22;;;;;;;;;;5482391;26;19999;-57
2024/04/16 00:32:29;;;;;;;9.00;2.47;;;;;;;;;;5477008;26;20462;-56
2024/04/16 00:34:56;;;;;;;9.18;2.03;;;;;;;;;;5490513;26;20002;-56
2024/04/16 00:37:22;;;;;;;9.85;2.08;;;;;;;;;;5458319;26;20025;-59
2024/04/16 00:39:48;;;;;;;7.63;1.77;;;;;;;;;;5489803;26;19998;-60
2024/04/16 00:42:15;;;;;;;10.00;2.22;;;;;;;;;;5476626;26;20416;-56
2024/04/16 00:44:41;;;;;;;6.45;1.80;;;;;;;;;;5455156;26;20006;-54
2024/04/16 00:47:11;;;;;;;8.40;1.60;;;;;;;;;;5489987;26;20027;-55
2024/04/16 00:49:38;;;;;;;8.43;1.55;;;;;;;;;;5490177;26;20006;-54
2024/04/16 00:52:05;;;;;;;7.32;1.75;;;;;;;;;;5445337;26;20009;-54
2024/04/16 00:54:32;;;;;;;5.55;1.30;;;;;;;;;;5424254;26;20026;-55
2024/04/16 00:56:58;;;;;;;6.07;1.73;;;;;;;;;;5488364;26;20129;-56
2024/04/16 00:59:24;;;;;;;8.80;1.63;;;;;;;;;;5490198;26;20002;-53
2024/04/16 01:01:53;;;;;;;7.30;1.67;;;;;;;;;;5481251;26;20411;-56
2024/04/16 01:04:22;;;;;;;7.82;1.83;;;;;;;;;;5462941;26;20071;-55
2024/04/16 01:06:51;;;;;;;8.00;1.65;;;;;;;;;;5493009;26;20088;-54
2024/04/16 01:09:18;;;;;;;6.50;1.65;;;;;;;;;;5493688;26;19994;-56
2024/04/16 01:11:48;;;;;;;6.18;1.52;;;;;;;;;;5487167;26;20358;-54
2024/04/16 01:14:14;;;;;;;5.72;1.58;;;;;;;;;;5457476;26;20112;-55
2024/04/16 01:16:39;;;;;;;5.05;1.20;;;;;;;;;;5472756;26;20012;-54
2024/04/16 01:19:07;;;;;;;6.43;1.55;;;;;;;;;;5493463;26;19994;-54
2024/04/16 01:21:33;;;;;;;8.63;1.63;;;;;;;;;;5492293;26;20392;-54
2024/04/16 01:24:00;;;;;;;8.15;1.77;;;;;;;;;;5493540;26;20036;-56
2024/04/16 01:26:26;;;;;;;6.88;1.65;;;;;;;;;;5493885;26;20017;-53
2024/04/16 01:28:53;;;;;;;9.38;2.22;;;;;;;;;;5473477;26;19999;-53
2024/04/16 01:31:19;;;;;;;7.05;1.80;;;;;;;;;;5469967;26;20375;-55
2024/04/16 01:33:46;;;;;;;8.60;2.10;;;;;;;;;;5494320;26;19998;-55
2024/04/16 01:36:12;;;;;;;10.40;2.38;;;;;;;;;;5493584;26;20014;-55
2024/04/16 01:38:38;;;;;;;7.57;2.00;;;;;;;;;;5486939;26;20272;-55
2024/04/16 01:41:05;;;;;;;11.10;2.15;;;;;;;;;;5461283;26;19990;-54
2024/04/16 01:43:31;;;;;;;9.25;1.75;;;;;;;;;;5460834;26;20013;-53
2024/04/16 01:45:58;;;;;;;8.00;2.03;;;;;;;;;;5459215;26;20006;-53
2024/04/16 01:48:25;;;;;;;8.95;2.20;;;;;;;;;;5473570;26;19994;-53
2024/04/16 01:50:51;;;;;;;7.70;2.17;;;;;;;;;;5490543;26;19990;-56
2024/04/16 01:53:18;;;;;;;8.95;1.95;;;;;;;;;;5467916;26;20006;-54
2024/04/16 01:55:45;;;;;;;10.52;2.30;;;;;;;;;;5459117;26;19995;-52
2024/04/16 01:58:11;;;;;;;11.80;2.13;;;;;;;;;;5492920;26;20017;-57
2024/04/16 02:00:38;;;;;;;8.00;1.92;;;;;;;;;;5492880;26;20399;-53
2024/04/16 02:03:03;;;;;;;9.05;2.00;;;;;;;;;;5492833;26;20291;-55
2024/04/16 02:05:30;;;;;;;7.47;1.85;;;;;;;;;;5493349;26;20012;-55
2024/04/16 02:07:56;;;;;;;8.80;2.17;;;;;;;;;;5492793;26;20034;-55
2024/04/16 02:10:22;;;;;;;9.07;2.00;;;;;;;;;;5492819;26;19998;-56
2024/04/16 02:12:49;;;;;;;8.15;1.80;;;;;;;;;;5492263;26;20051;-52
2024/04/16 02:15:16;;;;;;;9.93;1.83;;;;;;;;;;5491498;26;20298;-55
2024/04/16 02:17:42;;;;;;;7.75;2.17;;;;;;;;;;5493004;26;20005;-53
2024/04/16 02:20:08;;;;;;;9.63;2.28;;;;;;;;;;5493349;26;19997;-56
2024/04/16 02:22:35;;;;;;;5.60;1.75;;;;;;;;;;5480123;26;20002;-56
2024/04/16 02:25:01;;;;;;;8.48;2.10;;;;;;;;;;5493046;26;20071;-53
2024/04/16 02:27:28;;;;;;;11.30;2.38;;;;;;;;;;5493696;26;19990;-57
2024/04/16 02:29:54;;;;;;;10.75;2.15;;;;;;;;;;5493411;26;20030;-55
2024/04/16 02:32:20;;;;;;;8.73;2.00;;;;;;;;;;5471966;26;20353;-54
2024/04/16 02:34:48;;;;;;;7.47;1.67;;;;;;;;;;5424234;26;19991;-54
2024/04/16 02:37:14;;;;;;;8.55;1.88;;;;;;;;;;5469851;26;20009;-55
2024/04/16 02:39:41;;;;;;;11.38;2.35;;;;;;;;;;5492468;26;19990;-57
2024/04/16 02:42:07;;;;;;;9.82;2.28;;;;;;;;;;5475080;26;20007;-54
2024/04/16 02:44:34;;;;;;;10.30;2.45;;;;;;;;;;5468729;26;20026;-56
2024/04/16 02:47:00;;;;;;;12.27;2.55;;;;;;;;;;5492956;26;20012;-55
2024/04/16 02:49:27;;;;;;;12.70;2.03;;;;;;;;;;5475016;26;20013;-57
2024/04/16 02:51:53;;;;;;;7.88;2.00;;;;;;;;;;5467280;26;20012;-53
2024/04/16 02:54:19;;;;;;;9.18;2.13;;;;;;;;;;5492055;26;19990;-56
2024/04/16 02:56:46;;;;;;;10.13;1.90;;;;;;;;;;5491569;26;20133;-53
2024/04/16 02:59:12;;;;;;;15.32;2.30;;;;;;;;;;5491953;26;20349;-54
2024/04/16 03:01:39;;;;;;;10.65;2.40;;;;;;;;;;5485947;20;20011;-87
2024/04/16 03:04:05;;;;;;;7.72;2.20;;;;;;;;;;5453951;26;20030;-86
2024/04/16 03:06:30;;;;;;;13.27;2.25;;;;;;;;;;5455899;26;19995;-87
2024/04/16 03:08:55;;;;;;;11.40;2.70;;;;;;;;;;5437082;26;20435;-87
2024/04/16 03:11:21;;;;;;;13.05;2.20;;;;;;;;;;5420530;26;19991;-89
2024/04/16 03:13:46;;;;;;;10.25;1.98;;;;;;;;;;5424123;26;20005;-88
2024/04/16 03:16:11;;;;;;;11.75;2.00;;;;;;;;;;5456018;26;19987;-88
2024/04/16 03:18:37;;;;;;;11.70;2.08;;;;;;;;;;5455547;26;20122;-88
2024/04/16 03:21:02;;;;;;;9.77;1.80;;;;;;;;;;5456273;26;20469;-88
2024/04/16 03:23:27;;;;;;;6.82;2.20;;;;;;;;;;5455561;26;19987;-88
2024/04/16 03:25:52;;;;;;;9.23;1.70;;;;;;;;;;5423925;26;20122;-88
2024/04/16 03:28:18;;;;;;;7.45;2.08;;;;;;;;;;5455077;26;19995;-88
2024/04/16 03:30:43;;;;;;;9.35;1.85;;;;;;;;;;5456229;26;19998;-88
2024/04/16 03:33:09;;;;;;;10.23;2.60;;;;;;;;;;5456942;26;19999;-88
2024/04/16 03:35:35;;;;;;;7.60;1.90;;;;;;;;;;5425591;26;19991;-87
2024/04/16 03:38:01;;;;;;;10.52;2.28;;;;;;;;;;5425478;26;19987;-87
2024/04/16 03:40:26;;;;;;;9.77;2.17;;;;;;;;;;5425251;26;20001;-87
2024/04/16 03:42:51;;;;;;;8.98;2.00;;;;;;;;;;5457757;26;19987;-87
2024/04/16 03:45:17;;;;;;;8.65;2.40;;;;;;;;;;5456984;26;19987;-87
2024/04/16 03:47:42;;;;;;;7.72;2.10;;;;;;;;;;5424675;26;19987;-88
2024/04/16 03:50:07;;;;;;;8.07;2.10;;;;;;;;;;5456869;26;20060;-88
2024/04/16 03:52:32;;;;;;;11.63;2.13;;;;;;;;;;5457390;26;20005;-87
2024/04/16 03:54:58;;;;;;;9.13;2.10;;;;;;;;;;5424956;26;19998;-87
2024/04/16 03:57:23;;;;;;;10.50;2.00;;;;;;;;;;5425031;26;20010;-88
2024/04/16 04:02:33;;;;;;;13.73;2.67;;;;;;;;;;5435707;21;20081;-52
2024/04/16 04:05:00;;;;;;;9.55;2.17;;;;;;;;;;5420168;26;20404;-51
2024/04/16 04:07:27;;;;;;;13.15;2.47;;;;;;;;;;5389010;26;20024;-51
2024/04/16 04:09:52;;;;;;;9.57;3.17;;;;;;;;;;5385997;26;20281;-52
2024/04/16 04:12:17;;;;;;;10.98;2.10;;;;;;;;;;5400970;26;19991;-51
2024/04/16 04:14:42;;;;;;;9.38;2.30;;;;;;;;;;5420037;26;19998;-51
2024/04/16 04:17:08;;;;;;;12.18;2.35;;;;;;;;;;5389672;26;20003;-51
2024/04/16 04:19:33;;;;;;;7.63;2.17;;;;;;;;;;5384843;26;19992;-52
2024/04/16 04:21:58;;;;;;;7.82;2.22;;;;;;;;;;5404377;26;19991;-51
2024/04/16 04:24:23;;;;;;;8.57;2.17;;;;;;;;;;5418674;26;20061;-51
2024/04/16 04:26:48;;;;;;;8.98;1.85;;;;;;;;;;5419463;26;20086;-52
2024/04/16 04:29:14;;;;;;;10.38;2.03;;;;;;;;;;5419570;26;20432;-51
2024/04/16 04:31:39;;;;;;;7.45;2.03;;;;;;;;;;5414369;26;20004;-51
2024/04/16 04:34:04;;;;;;;6.35;1.88;;;;;;;;;;5384238;26;20000;-51
2024/04/16 04:36:29;;;;;;;9.95;1.83;;;;;;;;;;5383811;26;20003;-51
2024/04/16 04:38:55;;;;;;;9.82;2.33;;;;;;;;;;5384322;26;20004;-54
2024/04/16 04:41:20;;;;;;;9.57;2.17;;;;;;;;;;5355525;26;20015;-52
2024/04/16 04:43:45;;;;;;;6.65;1.90;;;;;;;;;;5389669;26;19992;-53
2024/04/16 04:46:10;;;;;;;8.98;2.00;;;;;;;;;;5408610;26;19996;-50
2024/04/16 04:48:36;;;;;;;7.20;1.90;;;;;;;;;;5392183;26;20074;-51
2024/04/16 04:51:01;;;;;;;6.60;2.00;;;;;;;;;;5423245;26;19988;-55
2024/04/16 04:53:26;;;;;;;8.00;1.92;;;;;;;;;;5422226;26;20010;-51
2024/04/16 04:55:52;;;;;;;12.98;2.67;;;;;;;;;;5410601;26;20015;-54
2024/04/16 04:58:17;;;;;;;9.35;2.20;;;;;;;;;;5356426;26;20078;-52
2024/04/16 05:00:42;;;;;;;8.52;2.58;;;;;;;;;;5401893;26;19992;-52
2024/04/16 05:03:08;;;;;;;8.95;2.17;;;;;;;;;;5405648;26;20300;-53
2024/04/16 05:05:33;;;;;;;9.90;3.00;;;;;;;;;;5356235;26;20324;-51
2024/04/16 05:07:58;;;;;;;8.57;2.45;;;;;;;;;;5406886;26;20066;-54
2024/04/16 05:10:24;;;;;;;9.07;2.80;;;;;;;;;;5422878;26;20013;-53
2024/04/16 05:12:49;;;;;;;11.32;3.25;;;;;;;;;;5422278;26;20415;-52
2024/04/16 05:15:17;;;;;;;15.25;9.02;;;;;;;;;;5382301;26;20004;-54
2024/04/16 05:17:42;;;;;;;12.07;4.47;;;;;;;;;;5387136;26;20001;-56
2024/04/16 05:20:07;;;;;;;13.73;4.30;;;;;;;;;;5386983;26;20063;-53
2024/04/16 05:22:33;;;;;;;12.57;2.95;;;;;;;;;;5402338;26;19992;-52
2024/04/16 05:24:58;;;;;;;10.48;2.28;;;;;;;;;;5422182;26;20003;-52
2024/04/16 05:27:23;;;;;;;8.48;2.03;;;;;;;;;;5422253;26;20009;-52
2024/04/16 05:29:48;;;;;;;7.85;2.03;;;;;;;;;;5418006;26;19991;-53
2024/04/16 05:32:15;;;;;;;12.30;2.63;;;;;;;;;;5386687;26;19988;-52
2024/04/16 05:34:41;;;;;;;11.82;1.77;;;;;;;;;;5386742;26;19996;-54
2024/04/16 05:37:07;;;;;;;10.07;2.10;;;;;;;;;;5396252;26;20015;-55
2024/04/16 05:39:32;;;;;;;9.80;2.33;;;;;;;;;;5422206;26;19992;-55
2024/04/16 05:41:57;;;;;;;10.93;2.10;;;;;;;;;;5422390;26;19987;-52
2024/04/16 05:44:22;;;;;;;12.75;2.22;;;;;;;;;;5421968;26;19998;-52
2024/04/16 05:46:48;;;;;;;8.90;2.38;;;;;;;;;;5421889;26;19995;-51
2024/04/16 05:49:14;;;;;;;10.82;2.45;;;;;;;;;;5422224;26;19992;-52
2024/04/16 05:51:39;;;;;;;9.02;1.95;;;;;;;;;;5422214;26;20392;-52
2024/04/16 05:54:06;;;;;;;8.35;1.73;;;;;;;;;;5422202;26;19999;-52
2024/04/16 05:56:31;;;;;;;9.98;2.22;;;;;;;;;;5418871;26;20010;-53
2024/04/16 05:58:57;;;;;;;8.38;2.33;;;;;;;;;;5386263;26;20001;-51
2024/04/16 06:01:22;;;;;;;9.43;2.13;;;;;;;;;;5391196;26;20148;-55
2024/04/16 06:03:47;;;;;;;7.70;1.80;;;;;;;;;;5421954;26;20007;-52
2024/04/16 06:06:13;;;;;;;8.20;1.90;;;;;;;;;;5421961;26;20316;-57
2024/04/16 06:08:38;;;;;;;6.38;1.77;;;;;;;;;;5421784;26;20290;-52
2024/04/16 06:11:03;;;;;;;9.10;1.95;;;;;;;;;;5384935;26;20263;-52
2024/04/16 06:13:28;;;;;;;8.25;1.95;;;;;;;;;;5387036;26;20393;-52
2024/04/16 06:15:54;;;;;;;6.82;1.92;;;;;;;;;;5390220;26;20004;-55
2024/04/16 06:18:19;;;;;;;8.25;2.45;;;;;;;;;;5421635;26;19995;-53
2024/04/16 06:20:45;;;;;;;10.05;2.17;;;;;;;;;;5409254;26;20011;-56
2024/04/16 06:23:10;;;;;;;9.70;2.10;;;;;;;;;;5416272;26;20016;-53
2024/04/16 06:25:36;;;;;;;5.72;2.03;;;;;;;;;;5421655;26;19992;-55
2024/04/16 06:28:02;;;;;;;8.05;1.95;;;;;;;;;;5421671;26;20011;-56
2024/04/16 06:30:27;;;;;;;8.82;2.58;;;;;;;;;;5421575;26;19999;-52
2024/04/16 06:32:52;;;;;;;10.13;2.72;;;;;;;;;;5421066;26;19992;-52
2024/04/16 06:35:17;;;;;;;8.98;2.17;;;;;;;;;;5419379;26;20300;-55
2024/04/16 06:37:43;;;;;;;9.20;2.50;;;;;;;;;;5421156;26;20003;-54
2024/04/16 06:40:08;;;;;;;8.65;2.40;;;;;;;;;;5421443;26;19999;-57
2024/04/16 06:42:36;;;;;;;10.23;2.75;;;;;;;;;;5421483;26;19998;-57
2024/04/16 06:45:02;;;;;;;6.65;2.08;;;;;;;;;;5418862;26;20047;-57
2024/04/16 06:47:27;;;;;;;7.82;2.20;;;;;;;;;;5389010;26;19991;-58
2024/04/16 06:49:52;;;;;;;9.90;2.60;;;;;;;;;;5420783;26;19992;-57
2024/04/16 06:52:17;;;;;;;8.80;2.33;;;;;;;;;;5421622;26;20065;-58
2024/04/16 06:54:43;;;;;;;7.95;2.10;;;;;;;;;;5415619;26;20007;-59
2024/04/16 06:57:08;;;;;;;9.05;2.22;;;;;;;;;;5385151;26;20324;-58
2024/04/16 06:59:33;;;;;;;8.27;1.70;;;;;;;;;;5384943;26;20282;-58
2024/04/16 07:01:58;;;;;;;7.97;2.13;;;;;;;;;;5385513;26;19992;-60
2024/04/16 07:04:23;;;;;;;7.13;1.90;;;;;;;;;;5384455;26;20349;-60
2024/04/16 07:06:48;;;;;;;6.30;1.65;;;;;;;;;;5392137;26;20000;-58
2024/04/16 07:09:14;;;;;;;6.47;1.60;;;;;;;;;;5390741;26;20003;-60
2024/04/16 07:11:39;;;;;;;6.03;1.50;;;;;;;;;;5386366;26;20006;-60
2024/04/16 07:14:04;;;;;;;6.47;1.77;;;;;;;;;;5385952;26;20317;-60
2024/04/16 07:16:31;;;;;;;5.55;1.65;;;;;;;;;;5385724;26;20412;-60
2024/04/16 07:18:56;;;;;;;6.00;1.77;;;;;;;;;;5385459;26;20409;-60
2024/04/16 07:21:21;;;;;;;4.68;1.40;;;;;;;;;;5406513;26;20006;-59
2024/04/16 07:23:46;;;;;;;7.82;2.17;;;;;;;;;;5398351;26;20007;-58
2024/04/16 07:26:11;;;;;;;11.90;2.97;;;;;;;;;;5385490;26;20004;-60
2024/04/16 07:28:37;;;;;;;6.25;1.67;;;;;;;;;;5385414;26;20003;-61
2024/04/16 07:31:02;;;;;;;4.00;1.40;;;;;;;;;;5385406;26;20046;-58
2024/04/16 07:33:29;;;;;;;5.70;1.45;;;;;;;;;;5385187;26;20003;-60
2024/04/16 07:35:54;;;;;;;6.28;1.50;;;;;;;;;;5399358;26;20011;-60
2024/04/16 07:38:20;;;;;;;5.65;1.30;;;;;;;;;;5402482;26;20127;-59
2024/04/16 07:40:52;;;;;;;4.28;1.33;;;;;;;;;;5385078;26;20004;-59
2024/04/16 07:43:18;;;;;;;6.75;1.60;;;;;;;;;;5385319;26;20040;-59
2024/04/16 07:45:43;;;;;;;6.30;1.73;;;;;;;;;;5357046;26;20000;-58
2024/04/16 07:48:09;;;;;;;6.57;1.60;;;;;;;;;;5385403;26;20356;-60
2024/04/16 07:50:34;;;;;;;4.65;1.73;;;;;;;;;;5391623;26;19995;-59
2024/04/16 07:52:59;;;;;;;7.07;1.77;;;;;;;;;;5401203;26;20010;-60
2024/04/16 07:55:25;;;;;;;5.88;2.15;;;;;;;;;;5420777;26;20054;-59
2024/04/16 07:57:50;;;;;;;5.50;1.88;;;;;;;;;;5419436;26;20010;-59
2024/04/16 08:00:15;;;;;;;8.77;2.13;;;;;;;;;;5419890;26;20006;-60
2024/04/16 08:02:40;;;;;;;6.75;2.22;;;;;;;;;;5420343;26;19998;-59
2024/04/16 08:05:06;;;;;;;11.40;2.85;;;;;;;;;;5419611;26;20003;-56
2024/04/16 08:07:31;;;;;;;8.40;2.25;;;;;;;;;;5419161;26;19996;-60
2024/04/16 08:09:56;;;;;;;11.70;2.80;;;;;;;;;;5419937;26;20408;-59
2024/04/16 08:12:21;;;;;;;9.48;2.35;;;;;;;;;;5420166;26;19992;-60
2024/04/16 08:14:46;;;;;;;12.60;2.90;;;;;;;;;;5419755;26;19992;-59
2024/04/16 08:17:12;;;;;;;13.40;3.13;;;;;;;;;;5414832;26;20010;-61
2024/04/16 08:19:37;;;;;;;11.35;2.70;;;;;;;;;;5384195;26;19988;-59
2024/04/16 08:22:02;;;;;;;12.40;2.63;;;;;;;;;;5387201;26;20298;-58
2024/04/16 08:24:28;;;;;;;12.07;2.40;;;;;;;;;;5419798;26;20056;-58
2024/04/16 08:26:53;;;;;;;13.32;2.75;;;;;;;;;;5419867;26;20320;-59
2024/04/16 08:29:18;;;;;;;15.30;3.05;;;;;;;;;;5419852;26;20297;-60
2024/04/16 08:31:43;;;;;;;17.60;2.90;;;;;;;;;;5419764;26;20400;-60
2024/04/16 08:34:08;;;;;;;13.10;3.05;;;;;;;;;;5419863;26;20003;-58
2024/04/16 08:36:35;;;;;;;14.63;3.10;;;;;;;;;;5418578;26;19991;-59
2024/04/16 08:39:00;;;;;;;14.27;2.92;;;;;;;;;;5388638;26;20003;-60
2024/04/16 08:41:26;;;;;;;12.40;3.15;;;;;;;;;;5420058;26;19992;-59
2024/04/16 08:43:52;;;;;;;14.10;3.25;;;;;;;;;;5419696;26;20404;-57
2024/04/16 08:46:18;;;;;;;12.63;2.83;;;;;;;;;;5419966;26;20000;-57
2024/04/16 08:48:43;;;;;;;12.50;3.38;;;;;;;;;;5419805;26;19996;-56
2024/04/16 08:51:10;;;;;;;13.50;3.15;;;;;;;;;;5397793;26;20004;-55
2024/04/16 08:53:36;;;;;;;12.52;3.15;;;;;;;;;;5385694;26;20000;-55
2024/04/16 08:56:02;;;;;;;11.32;2.50;;;;;;;;;;5352874;26;20070;-59
2024/04/16 08:58:27;;;;;;;11.65;2.92;;;;;;;;;;5382304;26;20004;-59
2024/04/16 09:00:53;;;;;;;10.82;3.08;;;;;;;;;;5384814;26;20004;-58
2024/04/16 09:03:19;;;;;;;15.93;2.88;;;;;;;;;;5383293;26;20011;-58
2024/04/16 09:05:44;;;;;;;11.80;2.78;;;;;;;;;;5384165;26;19997;-57
2024/04/16 09:08:10;;;;;;;12.85;3.35;;;;;;;;;;5409376;26;20014;-58
2024/04/16 09:10:35;;;;;;;11.75;3.63;;;;;;;;;;5419462;26;20035;-58
2024/04/16 09:13:10;;;;;;;10.63;2.45;;;;;;;;;;5419412;26;20400;-56
2024/04/16 09:15:37;;;;;;;11.52;3.30;;;;;;;;;;5419464;26;20006;-57
2024/04/16 09:18:03;;;;;;;12.15;4.10;;;;;;;;;;5419455;26;20405;-57
2024/04/16 09:20:28;;;;;;;13.25;3.20;;;;;;;;;;5412489;26;20007;-57
2024/04/16 09:22:54;;;;;;;15.10;3.50;;;;;;;;;;5407363;26;19996;-56
2024/04/16 09:25:20;;;;;;;13.98;3.35;;;;;;;;;;5419745;26;19999;-58
2024/04/16 09:27:46;;;;;;;12.07;2.78;;;;;;;;;;5421476;26;20014;-58
2024/04/16 09:30:11;;;;;;;12.65;3.33;;;;;;;;;;5422837;26;20003;-55
2024/04/16 09:32:37;;;;;;;14.18;3.38;;;;;;;;;;5423082;26;20007;-58
2024/04/16 09:35:02;;;;;;;15.23;3.28;;;;;;;;;;5391315;26;20005;-59
2024/04/16 09:37:27;;;;;;;14.20;2.97;;;;;;;;;;5405106;26;20004;-56
2024/04/16 09:39:53;;;;;;;13.50;3.30;;;;;;;;;;5387494;26;20012;-60
2024/04/16 09:42:27;;;;;;;11.98;2.55;;;;;;;;;;5387238;26;20008;-57
2024/04/16 09:44:54;;;;;;;10.90;2.60;;;;;;;;;;5387204;26;19996;-56
2024/04/16 09:47:19;;;;;;;14.75;3.75;;;;;;;;;;5387034;26;19996;-58
2024/04/16 09:49:45;;;;;;;13.18;2.55;;;;;;;;;;5389216;26;20484;-59
2024/04/16 09:52:11;;;;;;;11.27;2.75;;;;;;;;;;5387914;26;20008;-56
2024/04/16 09:54:37;;;;;;;11.88;2.85;;;;;;;;;;5386728;26;20004;-58
2024/04/16 09:57:03;;;;;;;9.90;2.55;;;;;;;;;;5386948;26;20410;-59
2024/04/16 09:59:29;;;;;;;15.00;2.90;;;;;;;;;;5387149;26;19996;-59
2024/04/16 10:01:55;;;;;;;15.43;2.67;;;;;;;;;;5385773;26;20432;-56
2024/04/16 10:04:21;;;;;;;17.92;3.33;;;;;;;;;;5406661;26;20278;-59
2024/04/16 10:06:47;;;;;;;18.63;3.42;;;;;;;;;;5411797;26;19999;-60
2024/04/16 10:09:17;;;;;;;13.90;3.00;;;;;;;;;;5355813;26;19999;-59
2024/04/16 10:11:43;;;;;;;11.40;2.80;;;;;;;;;;5355814;26;20278;-60
2024/04/16 10:14:08;;;;;;;11.07;2.30;;;;;;;;;;5386777;26;19996;-58
2024/04/16 10:16:33;;;;;;;11.48;2.22;;;;;;;;;;5412880;26;20006;-57
2024/04/16 10:19:03;;;;;;;10.68;1.98;;;;;;;;;;5421849;26;20359;-59
2024/04/16 10:21:36;;;;;;;13.20;2.63;;;;;;;;;;5413492;26;20348;-58
2024/04/16 10:24:06;;;;;;;14.40;2.80;;;;;;;;;;5398357;26;20006;-57
2024/04/16 10:26:33;;;;;;;11.00;2.60;;;;;;;;;;5421953;26;20417;-57
2024/04/16 10:29:01;;;;;;;13.80;2.75;;;;;;;;;;5421273;26;20003;-58
2024/04/16 10:31:33;;;;;;;8.55;1.98;;;;;;;;;;5404723;26;20392;-60
2024/04/16 10:33:59;;;;;;;9.82;1.70;;;;;;;;;;5386888;26;20007;-56
2024/04/16 10:36:25;;;;;;;8.55;1.70;;;;;;;;;;5386447;26;20000;-59
2024/04/16 10:38:50;;;;;;;7.90;1.60;;;;;;;;;;5386287;26;20003;-58
2024/04/16 10:41:24;;;;;;;8.57;1.42;;;;;;;;;;5386293;26;20401;-59
2024/04/16 10:43:49;;;;;;;7.93;2.08;;;;;;;;;;5395125;26;20070;-57
2024/04/16 10:46:15;;;;;;;9.15;1.80;;;;;;;;;;5407987;26;20011;-57
2024/04/16 10:48:40;;;;;;;4.72;1.33;;;;;;;;;;5421411;26;19996;-57
2024/04/16 10:51:10;;;;;;;9.70;2.15;;;;;;;;;;5421201;26;19996;-59
2024/04/16 10:53:36;;;;;;;6.72;1.85;;;;;;;;;;5386047;26;20018;-56
2024/04/16 10:56:01;;;;;;;5.63;1.55;;;;;;;;;;5385944;26;19992;-57
2024/04/16 10:58:26;;;;;;;6.60;1.50;;;;;;;;;;5386200;26;19992;-58
2024/04/16 11:00:55;;;;;;;7.75;1.90;;;;;;;;;;5383785;26;20071;-55
2024/04/16 11:03:21;;;;;;;5.10;1.50;;;;;;;;;;5385057;26;20008;-56
2024/04/16 11:05:46;;;;;;;6.63;1.90;;;;;;;;;;5410405;26;20400;-58
2024/04/16 11:08:11;;;;;;;9.73;1.77;;;;;;;;;;5403572;26;20010;-59
2024/04/16 11:10:37;;;;;;;9.82;1.85;;;;;;;;;;5400080;26;19996;-59
2024/04/16 11:13:02;;;;;;;6.85;1.65;;;;;;;;;;5385968;26;20046;-57
2024/04/16 11:15:34;;;;;;;6.57;1.90;;;;;;;;;;5385681;26;19988;-59
2024/04/16 11:18:00;;;;;;;7.43;1.83;;;;;;;;;;5385966;26;20075;-58
2024/04/16 11:20:26;;;;;;;7.82;1.70;;;;;;;;;;5404904;26;20343;-59
2024/04/16 11:22:51;;;;;;;7.10;1.70;;;;;;;;;;5398477;26;20014;-59
2024/04/16 11:25:17;;;;;;;7.15;1.60;;;;;;;;;;5421058;26;20308;-59
2024/04/16 11:27:43;;;;;;;5.97;1.63;;;;;;;;;;5421241;26;20000;-59
2024/04/16 11:30:10;;;;;;;9.10;1.70;;;;;;;;;;5421196;26;20003;-56
2024/04/16 11:32:36;;;;;;;6.07;2.00;;;;;;;;;;5420966;26;20003;-58
2024/04/16 11:35:02;;;;;;;8.80;2.22;;;;;;;;;;5389587;26;19997;-57
2024/04/16 11:37:27;;;;;;;7.20;1.80;;;;;;;;;;5405841;26;20010;-57
2024/04/16 11:39:54;;;;;;;7.93;1.95;;;;;;;;;;5418080;26;20343;-58
2024/04/16 11:42:20;;;;;;;7.32;2.42;;;;;;;;;;5397990;26;20000;-55
2024/04/16 11:44:45;;;;;;;7.28;1.90;;;;;;;;;;5385958;26;20285;-58
2024/04/16 11:47:11;;;;;;;11.85;2.58;;;;;;;;;;5385088;26;20000;-54
2024/04/16 11:49:39;;;;;;;6.75;2.22;;;;;;;;;;5384323;26;20011;-57
2024/04/16 11:52:04;;;;;;;5.05;1.70;;;;;;;;;;5385462;26;20004;-56
2024/04/16 11:54:34;;;;;;;7.28;1.80;;;;;;;;;;5385342;26;20066;-58
2024/04/16 11:56:59;;;;;;;10.43;2.78;;;;;;;;;;5405533;26;20013;-58
2024/04/16 11:59:25;;;;;;;8.45;3.20;;;;;;;;;;5420447;26;19991;-57
2024/04/16 12:01:50;;;;;;;13.43;3.63;;;;;;;;;;5419616;26;20006;-58
2024/04/16 12:04:15;;;;;;;5.70;2.10;;;;;;;;;;5418683;26;20069;-57
2024/04/16 12:06:40;;;;;;;7.30;2.20;;;;;;;;;;5398692;26;20008;-55
2024/04/16 12:09:06;;;;;;;6.43;2.38;;;;;;;;;;5384887;26;20011;-58
2024/04/16 12:11:31;;;;;;;6.30;2.30;;;;;;;;;;5399664;26;20057;-55
2024/04/16 12:13:57;;;;;;;7.85;2.40;;;;;;;;;;5420192;26;20007;-58
2024/04/16 12:16:22;;;;;;;10.98;2.95;;;;;;;;;;5419804;26;19991;-55
2024/04/16 12:18:47;;;;;;;9.15;2.60;;;;;;;;;;5419987;26;20007;-54
2024/04/16 12:21:13;;;;;;;8.02;2.67;;;;;;;;;;5419645;26;20002;-54
2024/04/16 12:23:38;;;;;;;8.73;2.80;;;;;;;;;;5419860;26;19998;-54
2024/04/16 12:26:03;;;;;;;6.65;2.33;;;;;;;;;;5394850;26;19996;-56
2024/04/16 12:28:28;;;;;;;10.02;3.33;;;;;;;;;;5419987;26;19991;-56
2024/04/16 12:30:54;;;;;;;8.85;3.42;;;;;;;;;;5420014;26;20400;-57
2024/04/16 12:33:19;;;;;;;5.85;2.20;;;;;;;;;;5419927;26;20008;-55
2024/04/16 12:35:44;;;;;;;6.90;2.20;;;;;;;;;;5419450;26;19992;-55
2024/04/16 12:38:09;;;;;;;6.20;2.00;;;;;;;;;;5419796;26;20027;-57
2024/04/16 12:40:35;;;;;;;4.80;2.00;;;;;;;;;;5415422;26;19999;-56
2024/04/16 12:43:00;;;;;;;5.65;1.65;;;;;;;;;;5384164;26;19988;-58
2024/04/16 12:45:25;;;;;;;5.28;1.65;;;;;;;;;;5384163;26;20003;-56
2024/04/16 12:47:50;;;;;;;4.40;1.80;;;;;;;;;;5384043;26;19992;-55
2024/04/16 12:50:16;;;;;;;6.38;2.00;;;;;;;;;;5400548;26;19997;-55
2024/04/16 12:52:41;;;;;;;5.93;1.70;;;;;;;;;;5354435;26;20000;-54
2024/04/16 12:55:06;;;;;;;5.68;2.17;;;;;;;;;;5384374;26;20047;-54
2024/04/16 12:57:31;;;;;;;4.00;1.90;;;;;;;;;;5419501;26;19999;-54
2024/04/16 12:59:57;;;;;;;4.93;1.70;;;;;;;;;;5419398;26;20008;-56
2024/04/16 13:02:22;;;;;;;4.68;1.80;;;;;;;;;;5418317;26;19991;-54
2024/04/16 13:04:49;;;;;;;4.32;1.80;;;;;;;;;;5391176;26;20003;-56
2024/04/16 13:07:14;;;;;;;5.90;1.98;;;;;;;;;;5423099;26;19994;-57
2024/04/16 13:09:40;;;;;;;6.55;1.90;;;;;;;;;;5393491;26;20010;-57
2024/04/16 13:12:05;;;;;;;6.38;1.85;;;;;;;;;;5389930;26;19997;-53
2024/04/16 13:14:30;;;;;;;4.78;1.63;;;;;;;;;;5387968;26;20413;-57
2024/04/16 13:16:55;;;;;;;4.55;1.40;;;;;;;;;;5387056;26;20008;-56
2024/04/16 13:19:21;;;;;;;4.10;1.20;;;;;;;;;;5387055;26;20416;-56
2024/04/16 13:21:46;;;;;;;7.45;1.38;;;;;;;;;;5387480;26;19996;-53
2024/04/16 13:24:12;;;;;;;5.88;1.30;;;;;;;;;;5387967;26;20008;-56
2024/04/16 13:26:38;;;;;;;7.60;1.60;;;;;;;;;;5391971;26;20006;-53
2024/04/16 13:29:03;;;;;;;4.72;2.00;;;;;;;;;;5398731;26;20390;-55
2024/04/16 13:31:28;;;;;;;5.55;2.35;;;;;;;;;;5388858;26;20003;-55
2024/04/16 13:33:53;;;;;;;6.18;2.20;;;;;;;;;;5387241;26;20003;-56
2024/04/16 13:36:18;;;;;;;7.13;2.85;;;;;;;;;;5387201;26;20002;-54
2024/04/16 13:38:44;;;;;;;6.72;2.92;;;;;;;;;;5386822;26;19988;-56
2024/04/16 13:41:10;;;;;;;5.15;1.90;;;;;;;;;;5386834;26;19992;-57
2024/04/16 13:43:36;;;;;;;5.38;2.17;;;;;;;;;;5411252;26;19999;-56
2024/04/16 13:46:01;;;;;;;4.57;2.17;;;;;;;;;;5422571;26;20090;-53
2024/04/16 13:48:26;;;;;;;7.00;3.20;;;;;;;;;;5422376;26;19999;-53
2024/04/16 13:50:51;;;;;;;4.07;1.38;;;;;;;;;;5421796;26;20069;-52
2024/04/16 13:53:16;;;;;;;5.50;2.15;;;;;;;;;;5422057;26;19992;-57
2024/04/16 13:55:42;;;;;;;3.42;1.02;;;;;;;;;;5422667;26;20061;-53
2024/04/16 13:58:07;;;;;;;3.33;1.30;;;;;;;;;;5411000;26;20007;-53
2024/04/16 14:00:32;;;;;;;4.78;1.05;;;;;;;;;;5385450;26;19992;-53
2024/04/16 14:02:57;;;;;;;3.20;0.90;;;;;;;;;;5392562;26;20002;-53
2024/04/16 14:05:23;;;;;;;2.45;0.80;;;;;;;;;;5422036;26;19995;-55
2024/04/16 14:07:48;;;;;;;2.88;0.80;;;;;;;;;;5423645;26;19996;-56
2024/04/16 14:10:13;;;;;;;2.58;1.10;;;;;;;;;;5419410;26;20007;-55
2024/04/16 14:12:39;;;;;;;3.10;1.02;;;;;;;;;;5415642;26;20353;-52
2024/04/16 14:15:05;;;;;;;4.60;1.92;;;;;;;;;;5386430;26;20030;-51
2024/04/16 14:17:30;;;;;;;6.35;1.50;;;;;;;;;;5386492;26;19992;-54
2024/04/16 14:19:56;;;;;;;3.28;1.08;;;;;;;;;;5410813;26;19996;-54
2024/04/16 14:22:21;;;;;;;2.85;0.90;;;;;;;;;;5356039;26;20000;-52
2024/04/16 14:24:46;;;;;;;4.53;1.35;;;;;;;;;;5386417;26;20007;-52
2024/04/16 14:27:11;;;;;;;5.32;1.60;;;;;;;;;;5387374;26;20452;-55
2024/04/16 14:29:37;;;;;;;4.00;1.23;;;;;;;;;;5422099;26;19998;-55
2024/04/16 14:32:02;;;;;;;3.50;1.30;;;;;;;;;;5390634;26;20002;-53